Time;durP1;ratioP1;P1;durP2;ratioP2;P2;SDS_P1;SDS_P2;PMS_P1;PMS_P2;Temp;Humidity;BMP_temperature;BMP_pressure;BME280_temperature;BME280_humidity;BME280_pressure;Samples;Min_cycle;Max_cycle;Signal;HPM_P1;HPM_P2
2022/10/23 00:00:28;;;;;;;22.17;13.52;;;;;;;;;;5036078;28;20177;-71
2022/10/23 00:02:54;;;;;;;28.85;13.95;;;;;;;;;;5032212;28;20716;-71
2022/10/23 00:05:20;;;;;;;26.17;13.60;;;;;;;;;;5030254;28;20181;-71
2022/10/23 00:07:54;;;;;;;27.83;13.32;;;;;;;;;;5033929;28;20190;-71
2022/10/23 00:10:21;;;;;;;24.42;14.38;;;;;;;;;;5037743;28;20189;-71
2022/10/23 00:12:47;;;;;;;23.48;14.55;;;;;;;;;;5034761;28;20225;-71
2022/10/23 00:15:16;;;;;;;30.17;14.95;;;;;;;;;;5033229;28;20260;-71
2022/10/23 00:17:41;;;;;;;31.20;16.08;;;;;;;;;;5034965;28;20205;-71
2022/10/23 00:20:08;;;;;;;29.13;15.50;;;;;;;;;;5032789;28;20238;-71
2022/10/23 00:22:33;;;;;;;30.15;15.95;;;;;;;;;;5033491;28;20512;-71
2022/10/23 00:24:58;;;;;;;27.48;15.32;;;;;;;;;;5029616;28;20232;-71
2022/10/23 00:27:24;;;;;;;24.63;14.75;;;;;;;;;;5031156;28;20634;-71
2022/10/23 00:29:50;;;;;;;26.35;14.20;;;;;;;;;;5034320;28;20212;-71
2022/10/23 00:32:16;;;;;;;23.63;15.00;;;;;;;;;;5033597;28;20234;-71
2022/10/23 00:34:41;;;;;;;33.55;16.55;;;;;;;;;;5031455;28;20692;-71
2022/10/23 00:37:06;;;;;;;29.17;16.88;;;;;;;;;;5036091;28;20186;-71
2022/10/23 00:39:32;;;;;;;28.45;17.80;;;;;;;;;;5035552;28;20181;-71
2022/10/23 00:41:57;;;;;;;29.70;15.55;;;;;;;;;;5031074;28;20194;-71
2022/10/23 00:44:22;;;;;;;32.15;14.93;;;;;;;;;;5033936;28;20178;-71
2022/10/23 00:46:48;;;;;;;32.35;16.80;;;;;;;;;;5029377;28;20212;-71
2022/10/23 00:49:15;;;;;;;37.47;18.42;;;;;;;;;;5034687;28;20535;-71
2022/10/23 00:51:47;;;;;;;42.92;17.95;;;;;;;;;;5032869;28;20181;-71
2022/10/23 00:54:16;;;;;;;30.13;16.80;;;;;;;;;;5042086;28;20216;-71
2022/10/23 00:56:43;;;;;;;27.60;16.13;;;;;;;;;;5029590;28;20451;-71
2022/10/23 00:59:09;;;;;;;26.40;15.35;;;;;;;;;;5026275;28;20190;-71
2022/10/23 01:01:35;;;;;;;23.42;14.50;;;;;;;;;;5030398;28;20219;-71
2022/10/23 01:04:03;;;;;;;32.55;17.10;;;;;;;;;;5041788;28;20180;-71
2022/10/23 01:06:36;;;;;;;31.38;16.67;;;;;;;;;;5038628;28;20720;-71
2022/10/23 01:09:11;;;;;;;27.80;16.65;;;;;;;;;;5028093;28;20215;-71
2022/10/23 01:11:44;;;;;;;26.92;17.48;;;;;;;;;;5041355;28;20193;-71
2022/10/23 01:14:32;;;;;;;26.02;17.05;;;;;;;;;;5040161;28;20335;-71
2022/10/23 01:17:06;;;;;;;22.80;14.70;;;;;;;;;;5035774;28;20735;-71
2022/10/23 01:20:12;;;;;;;27.45;14.80;;;;;;;;;;5030817;28;20182;-71
2022/10/23 01:23:06;;;;;;;28.17;15.90;;;;;;;;;;5033510;28;20251;-71
2022/10/23 01:25:57;;;;;;;32.53;17.02;;;;;;;;;;5041180;28;20186;-71
2022/10/23 01:28:33;;;;;;;30.60;16.63;;;;;;;;;;5031162;28;20201;-71
2022/10/23 01:31:03;;;;;;;29.30;16.27;;;;;;;;;;5038598;28;20722;-71
2022/10/23 01:33:37;;;;;;;34.88;18.77;;;;;;;;;;5030640;28;20269;-71
2022/10/23 01:36:05;;;;;;;65.13;18.27;;;;;;;;;;5040055;28;20542;-71
2022/10/23 01:38:40;;;;;;;50.80;15.90;;;;;;;;;;5029465;28;20263;-71
2022/10/23 01:41:17;;;;;;;36.53;16.98;;;;;;;;;;5035264;28;20288;-71
2022/10/23 01:44:25;;;;;;;38.17;17.27;;;;;;;;;;5042958;28;20174;-71
2022/10/23 01:46:52;;;;;;;96.78;18.70;;;;;;;;;;5029725;28;20200;-71
2022/10/23 01:49:19;;;;;;;28.77;17.50;;;;;;;;;;5037090;28;20637;-71
2022/10/23 01:51:50;;;;;;;25.95;15.88;;;;;;;;;;5032718;28;20190;-71
2022/10/23 01:54:18;;;;;;;36.88;16.27;;;;;;;;;;5041365;28;20256;-71
2022/10/23 01:56:47;;;;;;;25.35;15.25;;;;;;;;;;5034474;28;20240;-71
2022/10/23 01:59:17;;;;;;;24.75;15.88;;;;;;;;;;5040918;28;20212;-71
2022/10/23 02:01:46;;;;;;;29.23;16.55;;;;;;;;;;5047741;28;20173;-71
2022/10/23 02:04:16;;;;;;;32.28;16.33;;;;;;;;;;5044087;28;20711;-71
2022/10/23 02:06:41;;;;;;;25.98;16.73;;;;;;;;;;5034656;28;20185;-71
2022/10/23 02:09:07;;;;;;;27.05;14.93;;;;;;;;;;5041053;28;20630;-71
2022/10/23 02:11:39;;;;;;;22.90;15.00;;;;;;;;;;5035994;28;20567;-71
2022/10/23 02:14:08;;;;;;;26.77;16.23;;;;;;;;;;5048634;28;20187;-71
2022/10/23 02:16:41;;;;;;;22.70;14.90;;;;;;;;;;5051946;28;20185;-71
2022/10/23 02:19:27;;;;;;;28.45;14.73;;;;;;;;;;5045857;28;20174;-71
2022/10/23 02:21:55;;;;;;;24.65;14.95;;;;;;;;;;5033166;28;20185;-71
2022/10/23 02:24:44;;;;;;;30.92;15.38;;;;;;;;;;5045259;28;20174;-71
2022/10/23 02:27:13;;;;;;;28.00;16.08;;;;;;;;;;5046550;28;20209;-71
2022/10/23 02:29:52;;;;;;;30.08;15.10;;;;;;;;;;5033617;28;20232;-71
2022/10/23 02:32:21;;;;;;;20.23;13.35;;;;;;;;;;5041721;28;20290;-71
2022/10/23 02:34:47;;;;;;;28.90;14.70;;;;;;;;;;5035970;28;20198;-71
2022/10/23 02:37:13;;;;;;;26.00;13.95;;;;;;;;;;5040623;28;20217;-71
2022/10/23 02:39:38;;;;;;;28.33;14.35;;;;;;;;;;5034104;28;20585;-71
2022/10/23 02:42:19;;;;;;;26.00;14.35;;;;;;;;;;5036565;28;20181;-71
2022/10/23 02:45:18;;;;;;;25.77;13.93;;;;;;;;;;5036895;28;20181;-71
2022/10/23 02:48:11;;;;;;;23.90;13.57;;;;;;;;;;5039724;28;20208;-71
2022/10/23 02:51:02;;;;;;;20.45;12.85;;;;;;;;;;5050565;28;20185;-71
2022/10/23 02:53:34;;;;;;;20.23;13.85;;;;;;;;;;5032499;28;20587;-71
2022/10/23 02:56:34;;;;;;;29.48;14.15;;;;;;;;;;5043293;28;20564;-71
2022/10/23 02:59:15;;;;;;;22.70;13.80;;;;;;;;;;5028909;28;20305;-71
2022/10/23 03:01:57;;;;;;;18.63;11.88;;;;;;;;;;5032950;28;20209;-71
2022/10/23 03:04:26;;;;;;;21.55;11.20;;;;;;;;;;5032802;28;20175;-71
2022/10/23 03:06:52;;;;;;;19.48;11.57;;;;;;;;;;5041689;28;20587;-71
2022/10/23 03:09:17;;;;;;;14.25;10.43;;;;;;;;;;5031937;28;20507;-71
2022/10/23 03:11:43;;;;;;;18.02;11.18;;;;;;;;;;5031274;28;20232;-71
2022/10/23 03:14:10;;;;;;;20.75;11.02;;;;;;;;;;5048223;28;20181;-71
2022/10/23 03:16:35;;;;;;;19.70;11.32;;;;;;;;;;5046848;28;20193;-71
2022/10/23 03:19:00;;;;;;;16.17;10.45;;;;;;;;;;5049584;28;20174;-71
2022/10/23 03:21:26;;;;;;;17.58;11.00;;;;;;;;;;5039023;28;20185;-71
2022/10/23 03:23:51;;;;;;;26.92;14.00;;;;;;;;;;5046511;28;20679;-71
2022/10/23 03:26:16;;;;;;;26.35;13.02;;;;;;;;;;5043228;28;20822;-71
2022/10/23 03:28:42;;;;;;;26.13;13.43;;;;;;;;;;5031424;28;20186;-71
2022/10/23 03:31:07;;;;;;;21.35;13.43;;;;;;;;;;5049161;28;20185;-71
2022/10/23 03:33:32;;;;;;;28.30;14.80;;;;;;;;;;5038600;28;20256;-71
2022/10/23 03:35:58;;;;;;;23.90;12.82;;;;;;;;;;5035012;28;20922;-72
2022/10/23 03:38:23;;;;;;;23.67;12.82;;;;;;;;;;5031323;28;20216;-71
2022/10/23 03:40:48;;;;;;;20.38;12.43;;;;;;;;;;5031133;28;20182;-71
2022/10/23 03:43:14;;;;;;;21.77;12.35;;;;;;;;;;5030301;28;20625;-71
2022/10/23 03:45:39;;;;;;;29.17;12.38;;;;;;;;;;5038364;28;20586;-71
2022/10/23 03:48:05;;;;;;;30.63;14.75;;;;;;;;;;5043312;28;20254;-73
2022/10/23 03:50:30;;;;;;;22.90;13.50;;;;;;;;;;5038728;28;20174;-71
2022/10/23 03:52:56;;;;;;;26.92;15.15;;;;;;;;;;5040827;28;20281;-71
2022/10/23 03:55:21;;;;;;;25.73;14.73;;;;;;;;;;5038512;28;20213;-71
2022/10/23 03:57:46;;;;;;;28.52;16.42;;;;;;;;;;5040623;28;20193;-71
2022/10/23 04:00:12;;;;;;;26.48;16.02;;;;;;;;;;5043499;28;20186;-71
2022/10/23 04:02:37;;;;;;;32.10;16.50;;;;;;;;;;5039469;28;20269;-72
2022/10/23 04:05:03;;;;;;;36.97;16.05;;;;;;;;;;5043762;28;20264;-71
2022/10/23 04:07:28;;;;;;;34.95;17.77;;;;;;;;;;5046914;28;20208;-71
2022/10/23 04:09:54;;;;;;;31.17;17.17;;;;;;;;;;5043444;28;20201;-71
2022/10/23 04:12:19;;;;;;;34.92;18.38;;;;;;;;;;5042461;28;20198;-71
2022/10/23 04:14:44;;;;;;;43.42;19.73;;;;;;;;;;5043784;28;20210;-71
2022/10/23 04:17:10;;;;;;;38.63;19.38;;;;;;;;;;5040917;28;20190;-72
2022/10/23 04:19:35;;;;;;;33.92;17.83;;;;;;;;;;5043073;28;20260;-71
2022/10/23 04:22:00;;;;;;;29.67;16.38;;;;;;;;;;5035937;28;20177;-72
2022/10/23 04:24:26;;;;;;;37.28;16.67;;;;;;;;;;5041795;28;20192;-72
2022/10/23 04:26:51;;;;;;;34.17;17.85;;;;;;;;;;5044557;28;20196;-72
2022/10/23 04:29:17;;;;;;;33.65;16.60;;;;;;;;;;5055694;28;20186;-72
2022/10/23 04:31:43;;;;;;;29.73;15.93;;;;;;;;;;5044061;28;20284;-72
2022/10/23 04:34:08;;;;;;;37.55;18.20;;;;;;;;;;5043970;28;20398;-72
2022/10/23 04:36:34;;;;;;;27.55;16.40;;;;;;;;;;5033868;28;20210;-72
2022/10/23 04:38:59;;;;;;;36.53;17.00;;;;;;;;;;5044533;28;20185;-72
2022/10/23 04:41:24;;;;;;;30.83;16.80;;;;;;;;;;5039226;28;20177;-72
2022/10/23 04:43:50;;;;;;;29.52;16.95;;;;;;;;;;5047562;28;20185;-72
2022/10/23 04:46:15;;;;;;;38.38;20.52;;;;;;;;;;5046539;28;20205;-72
2022/10/23 04:48:40;;;;;;;36.45;19.42;;;;;;;;;;5040310;28;20727;-72
2022/10/23 04:51:06;;;;;;;40.03;21.35;;;;;;;;;;5037282;28;20213;-72
2022/10/23 04:53:32;;;;;;;43.08;22.08;;;;;;;;;;5044999;28;20186;-72
2022/10/23 04:55:58;;;;;;;41.38;21.58;;;;;;;;;;5048960;28;20597;-72
2022/10/23 04:58:25;;;;;;;41.00;21.35;;;;;;;;;;5037123;28;20233;-72
2022/10/23 05:00:51;;;;;;;36.38;20.02;;;;;;;;;;5042305;28;20268;-72
2022/10/23 05:03:17;;;;;;;44.72;21.58;;;;;;;;;;5038172;28;20605;-72
2022/10/23 05:05:43;;;;;;;44.20;20.35;;;;;;;;;;5032399;28;20178;-72
2022/10/23 05:08:09;;;;;;;33.50;19.55;;;;;;;;;;5036189;28;20707;-72
2022/10/23 05:10:34;;;;;;;37.55;21.35;;;;;;;;;;5044414;28;20204;-72
2022/10/23 05:13:00;;;;;;;53.00;23.88;;;;;;;;;;5046468;28;20704;-72
2022/10/23 05:15:25;;;;;;;40.67;20.38;;;;;;;;;;5037992;28;20521;-72
2022/10/23 05:17:55;;;;;;;43.42;23.10;;;;;;;;;;5029362;28;20607;-72
2022/10/23 05:20:23;;;;;;;39.15;22.40;;;;;;;;;;5034344;28;20548;-72
2022/10/23 05:22:52;;;;;;;45.40;23.60;;;;;;;;;;5048448;28;20212;-71
2022/10/23 05:25:17;;;;;;;47.55;25.55;;;;;;;;;;5046236;28;20185;-71
2022/10/23 05:27:43;;;;;;;51.42;24.75;;;;;;;;;;5047777;28;20534;-71
2022/10/23 05:30:09;;;;;;;50.42;25.88;;;;;;;;;;5046090;28;20189;-72
2022/10/23 05:32:35;;;;;;;51.38;26.20;;;;;;;;;;5040496;28;20592;-72
2022/10/23 05:35:07;;;;;;;59.00;26.45;;;;;;;;;;5046205;28;20197;-72
2022/10/23 05:37:32;;;;;;;56.60;26.15;;;;;;;;;;5030239;28;20186;-72
2022/10/23 05:39:58;;;;;;;49.53;25.73;;;;;;;;;;5036713;28;20194;-72
2022/10/23 05:42:23;;;;;;;53.03;25.77;;;;;;;;;;5046113;28;20280;-72
2022/10/23 05:44:48;;;;;;;54.65;26.45;;;;;;;;;;5040112;28;20177;-72
2022/10/23 05:47:14;;;;;;;53.60;27.13;;;;;;;;;;5045867;28;20211;-72
2022/10/23 05:49:39;;;;;;;53.60;25.50;;;;;;;;;;5039769;28;20250;-72
2022/10/23 05:52:05;;;;;;;54.78;27.38;;;;;;;;;;5048945;28;20656;-72
2022/10/23 05:54:30;;;;;;;54.65;25.63;;;;;;;;;;5045408;28;20240;-72
2022/10/23 05:56:55;;;;;;;45.28;24.95;;;;;;;;;;5046381;28;20193;-72
2022/10/23 05:59:21;;;;;;;47.67;25.48;;;;;;;;;;5029970;28;20190;-72
2022/10/23 06:01:46;;;;;;;53.78;26.27;;;;;;;;;;5048394;28;20220;-72
2022/10/23 06:04:12;;;;;;;47.95;25.48;;;;;;;;;;5033917;28;20231;-72
2022/10/23 06:06:37;;;;;;;50.13;23.85;;;;;;;;;;5038335;28;20182;-72
2022/10/23 06:09:03;;;;;;;45.80;24.80;;;;;;;;;;5040985;28;20178;-72
2022/10/23 06:11:29;;;;;;;53.63;26.05;;;;;;;;;;5030113;28;20205;-72
2022/10/23 06:13:54;;;;;;;47.42;25.05;;;;;;;;;;5036334;28;20181;-72
2022/10/23 06:16:23;;;;;;;47.88;24.70;;;;;;;;;;5044025;28;20695;-72
2022/10/23 06:18:48;;;;;;;40.63;24.42;;;;;;;;;;5044783;28;20190;-72
2022/10/23 06:21:14;;;;;;;46.65;24.40;;;;;;;;;;5039986;28;20201;-72
2022/10/23 06:23:42;;;;;;;54.95;25.48;;;;;;;;;;5039644;28;20190;-72
2022/10/23 06:26:09;;;;;;;52.13;26.08;;;;;;;;;;5046480;28;20186;-72
2022/10/23 06:28:35;;;;;;;52.20;26.45;;;;;;;;;;5040380;28;20182;-72
2022/10/23 06:31:07;;;;;;;52.42;25.98;;;;;;;;;;5042272;28;20644;-72
2022/10/23 06:33:33;;;;;;;53.05;25.98;;;;;;;;;;5037244;28;20284;-72
2022/10/23 06:35:58;;;;;;;54.38;27.15;;;;;;;;;;5034185;28;20212;-72
2022/10/23 06:38:24;;;;;;;49.47;25.77;;;;;;;;;;5042385;28;20173;-72
2022/10/23 06:40:53;;;;;;;44.60;23.17;;;;;;;;;;5044067;28;20189;-72
2022/10/23 06:43:19;;;;;;;50.22;24.95;;;;;;;;;;5050637;28;20216;-72
2022/10/23 06:45:44;;;;;;;46.42;24.17;;;;;;;;;;5040161;28;20331;-72
2022/10/23 06:48:10;;;;;;;45.13;25.13;;;;;;;;;;5032076;28;20391;-72
2022/10/23 06:50:37;;;;;;;41.58;24.02;;;;;;;;;;5030421;28;20224;-72
2022/10/23 06:53:04;;;;;;;50.03;24.60;;;;;;;;;;5031356;28;20228;-72
2022/10/23 06:55:29;;;;;;;45.20;23.45;;;;;;;;;;5044272;28;20193;-72
2022/10/23 06:57:55;;;;;;;44.63;24.17;;;;;;;;;;5039320;28;20721;-72
2022/10/23 07:00:20;;;;;;;41.55;23.48;;;;;;;;;;5037204;28;20276;-72
2022/10/23 07:02:46;;;;;;;41.45;23.40;;;;;;;;;;5034064;28;20194;-72
2022/10/23 07:05:11;;;;;;;42.00;24.52;;;;;;;;;;5034190;28;20183;-72
2022/10/23 07:07:37;;;;;;;45.50;23.75;;;;;;;;;;5035982;28;20201;-72
2022/10/23 07:10:03;;;;;;;37.30;22.73;;;;;;;;;;5033885;28;20234;-72
2022/10/23 07:12:28;;;;;;;44.63;22.95;;;;;;;;;;5035905;28;20310;-72
2022/10/23 07:14:54;;;;;;;40.67;22.75;;;;;;;;;;5037320;28;20198;-72
2022/10/23 07:17:19;;;;;;;40.70;22.35;;;;;;;;;;5034334;28;20719;-72
2022/10/23 07:19:46;;;;;;;49.40;23.15;;;;;;;;;;5032399;28;20174;-72
2022/10/23 07:22:11;;;;;;;41.08;22.00;;;;;;;;;;5031466;28;20209;-72
2022/10/23 07:24:37;;;;;;;48.17;22.88;;;;;;;;;;5037159;28;20309;-73
2022/10/23 07:27:03;;;;;;;44.33;21.27;;;;;;;;;;5031908;28;20182;-72
2022/10/23 07:29:29;;;;;;;44.67;21.50;;;;;;;;;;5035687;28;20659;-72
2022/10/23 07:31:55;;;;;;;34.47;19.77;;;;;;;;;;5032332;28;20251;-72
2022/10/23 07:34:20;;;;;;;38.50;19.52;;;;;;;;;;5036560;28;20214;-72
2022/10/23 07:36:45;;;;;;;36.72;20.08;;;;;;;;;;5036197;28;20266;-72
2022/10/23 07:39:11;;;;;;;35.08;20.25;;;;;;;;;;5032976;28;20204;-72
2022/10/23 07:41:36;;;;;;;33.50;19.17;;;;;;;;;;5027392;28;20209;-72
2022/10/23 07:44:01;;;;;;;34.47;20.27;;;;;;;;;;5031208;28;20609;-72
2022/10/23 07:46:27;;;;;;;29.60;18.38;;;;;;;;;;5030024;28;20178;-72
2022/10/23 07:48:52;;;;;;;32.75;18.85;;;;;;;;;;5030056;28;20182;-72
2022/10/23 07:51:17;;;;;;;35.67;17.95;;;;;;;;;;5031913;28;20239;-72
2022/10/23 07:53:43;;;;;;;35.30;18.10;;;;;;;;;;5032846;28;20255;-72
2022/10/23 07:56:13;;;;;;;32.97;17.05;;;;;;;;;;5027647;28;20771;-72
2022/10/23 07:58:38;;;;;;;34.05;16.95;;;;;;;;;;5030724;28;20594;-72
2022/10/23 08:01:14;;;;;;;35.03;17.25;;;;;;;;;;5031200;28;20178;-72
2022/10/23 08:03:40;;;;;;;31.45;15.65;;;;;;;;;;5031907;28;20185;-72
2022/10/23 08:06:05;;;;;;;28.13;15.98;;;;;;;;;;5037394;28;20189;-72
2022/10/23 08:08:30;;;;;;;24.92;15.73;;;;;;;;;;5033788;28;20256;-72
2022/10/23 08:10:56;;;;;;;25.73;15.85;;;;;;;;;;5027968;28;20463;-72
2022/10/23 08:13:22;;;;;;;22.27;14.70;;;;;;;;;;5036359;28;20182;-72
2022/10/23 08:15:49;;;;;;;24.38;15.50;;;;;;;;;;5033216;28;20232;-72
2022/10/23 08:18:15;;;;;;;24.40;14.13;;;;;;;;;;5041530;28;20204;-72
2022/10/23 08:20:42;;;;;;;29.60;15.07;;;;;;;;;;5039115;28;20178;-72
2022/10/23 08:23:08;;;;;;;21.00;13.50;;;;;;;;;;5039638;28;20198;-72
2022/10/23 08:25:34;;;;;;;24.90;12.95;;;;;;;;;;5030466;28;20182;-72
2022/10/23 08:27:59;;;;;;;25.15;14.82;;;;;;;;;;5033548;28;20244;-72
2022/10/23 08:30:30;;;;;;;20.58;13.55;;;;;;;;;;5127352;27;20295;-71
2022/10/23 08:32:56;;;;;;;20.63;12.90;;;;;;;;;;5107681;27;20203;-71
2022/10/23 08:35:21;;;;;;;20.27;13.55;;;;;;;;;;5107518;27;20175;-71
2022/10/23 08:37:47;;;;;;;24.13;14.23;;;;;;;;;;5107257;27;20190;-71
2022/10/23 08:40:18;;;;;;;20.90;12.73;;;;;;;;;;5105969;28;20180;-71
2022/10/23 08:42:52;;;;;;;23.55;12.68;;;;;;;;;;5105846;27;20278;-71
2022/10/23 08:45:23;;;;;;;20.55;13.48;;;;;;;;;;5109761;27;20179;-71
2022/10/23 08:47:54;;;;;;;19.40;12.43;;;;;;;;;;5115587;27;20615;-71
2022/10/23 08:50:27;;;;;;;20.98;12.30;;;;;;;;;;5109124;27;20726;-70
2022/10/23 08:53:01;;;;;;;20.85;12.77;;;;;;;;;;5112843;27;20756;-71
2022/10/23 08:55:35;;;;;;;14.40;11.32;;;;;;;;;;5107589;27;20707;-71
2022/10/23 08:58:06;;;;;;;16.42;11.40;;;;;;;;;;5108466;27;20201;-71
2022/10/23 09:00:32;;;;;;;23.65;11.70;;;;;;;;;;5108814;27;20179;-70
2022/10/23 09:03:00;;;;;;;18.52;10.50;;;;;;;;;;5107111;27;20213;-70
2022/10/23 09:05:47;;;;;;;21.88;11.07;;;;;;;;;;5108405;27;20175;-71
2022/10/23 09:08:27;;;;;;;15.82;10.00;;;;;;;;;;5109850;27;20235;-71
2022/10/23 09:11:14;;;;;;;17.67;9.98;;;;;;;;;;5105036;27;20179;-70
2022/10/23 09:14:01;;;;;;;13.48;10.05;;;;;;;;;;5112119;27;20490;-70
2022/10/23 09:16:50;;;;;;;15.88;9.55;;;;;;;;;;5117257;27;20719;-71
2022/10/23 09:19:18;;;;;;;17.77;10.23;;;;;;;;;;5104041;27;20168;-71
2022/10/23 09:21:48;;;;;;;11.73;8.32;;;;;;;;;;5108824;27;20187;-71
2022/10/23 09:24:16;;;;;;;13.07;8.27;;;;;;;;;;5109949;27;20231;-71
2022/10/23 09:26:47;;;;;;;15.45;8.48;;;;;;;;;;5109024;27;20226;-71
2022/10/23 09:29:26;;;;;;;13.30;7.90;;;;;;;;;;5107116;27;20230;-71
2022/10/23 09:31:54;;;;;;;13.05;8.00;;;;;;;;;;5105190;27;20619;-71
2022/10/23 09:34:23;;;;;;;16.48;7.82;;;;;;;;;;5114578;27;20602;-72
2022/10/23 09:36:54;;;;;;;19.98;8.07;;;;;;;;;;5116505;27;20176;-71
2022/10/23 09:39:24;;;;;;;11.15;6.85;;;;;;;;;;5109254;27;20177;-71
2022/10/23 09:41:50;;;;;;;12.38;7.30;;;;;;;;;;5096112;28;20274;-71
2022/10/23 09:44:27;;;;;;;13.57;7.30;;;;;;;;;;5099334;28;20187;-71
2022/10/23 09:46:57;;;;;;;14.32;7.57;;;;;;;;;;5099885;28;20181;-71
2022/10/23 09:49:25;;;;;;;12.75;7.03;;;;;;;;;;5095659;28;20207;-71
2022/10/23 09:51:59;;;;;;;13.75;6.78;;;;;;;;;;5097017;28;20176;-70
2022/10/23 09:54:26;;;;;;;10.43;6.57;;;;;;;;;;5091503;28;20535;-71
2022/10/23 09:56:53;;;;;;;11.50;6.72;;;;;;;;;;5094373;28;20191;-70
2022/10/23 09:59:27;;;;;;;10.98;6.45;;;;;;;;;;5100479;28;20259;-70
2022/10/23 10:01:56;;;;;;;7.72;5.65;;;;;;;;;;5095702;28;20184;-70
2022/10/23 10:04:36;;;;;;;8.10;5.90;;;;;;;;;;5092259;28;20207;-70
2022/10/23 10:07:04;;;;;;;10.90;5.60;;;;;;;;;;5098594;28;20172;-70
2022/10/23 10:09:30;;;;;;;12.15;6.20;;;;;;;;;;5091169;28;20211;-70
2022/10/23 10:12:06;;;;;;;8.50;5.28;;;;;;;;;;5096070;28;20202;-70
2022/10/23 10:14:56;;;;;;;10.93;5.22;;;;;;;;;;5094383;28;20245;-70
2022/10/23 10:17:32;;;;;;;11.65;5.35;;;;;;;;;;5098474;28;20639;-71
2022/10/23 10:20:36;;;;;;;13.30;5.35;;;;;;;;;;5101159;28;20274;-70
2022/10/23 10:23:26;;;;;;;11.10;4.95;;;;;;;;;;5089378;28;20647;-70
2022/10/23 10:26:11;;;;;;;11.95;5.03;;;;;;;;;;5096053;28;20323;-70
2022/10/23 10:29:10;;;;;;;11.50;4.97;;;;;;;;;;5091997;28;20231;-70
2022/10/23 10:31:54;;;;;;;11.93;5.30;;;;;;;;;;5091379;28;20212;-70
2022/10/23 10:34:42;;;;;;;10.43;4.97;;;;;;;;;;5090996;28;20216;-70
2022/10/23 10:37:39;;;;;;;9.48;4.78;;;;;;;;;;5094054;28;20180;-70
2022/10/23 10:40:40;;;;;;;8.70;4.47;;;;;;;;;;5091421;28;20175;-70
2022/10/23 10:43:37;;;;;;;6.88;4.35;;;;;;;;;;5098498;28;20194;-70
2022/10/23 10:46:21;;;;;;;10.43;4.78;;;;;;;;;;5095711;28;20176;-70
2022/10/23 10:49:12;;;;;;;11.52;4.88;;;;;;;;;;5095689;28;20191;-70
2022/10/23 10:52:02;;;;;;;10.82;5.13;;;;;;;;;;5084413;28;20560;-70
2022/10/23 10:54:38;;;;;;;9.63;4.63;;;;;;;;;;5092715;28;20190;-70
2022/10/23 10:57:14;;;;;;;9.88;4.90;;;;;;;;;;5092037;28;20191;-70
2022/10/23 10:59:42;;;;;;;9.40;4.72;;;;;;;;;;5096221;28;20190;-70
2022/10/23 11:02:27;;;;;;;9.13;4.97;;;;;;;;;;5094967;28;20192;-70
2022/10/23 11:05:23;;;;;;;8.57;4.38;;;;;;;;;;5092400;28;20710;-70
2022/10/23 11:07:54;;;;;;;8.80;4.80;;;;;;;;;;5069319;28;20206;-70
2022/10/23 11:10:20;;;;;;;8.65;4.60;;;;;;;;;;5097541;28;20193;-71
2022/10/23 11:12:47;;;;;;;13.10;4.47;;;;;;;;;;5088945;28;20654;-70
2022/10/23 11:15:26;;;;;;;8.68;4.85;;;;;;;;;;5098266;28;20779;-70
2022/10/23 11:17:58;;;;;;;7.15;4.15;;;;;;;;;;5089364;28;20669;-71
2022/10/23 11:20:52;;;;;;;12.70;4.68;;;;;;;;;;5096739;28;20206;-70
2022/10/23 11:23:30;;;;;;;8.77;4.60;;;;;;;;;;5088366;28;20430;-70
2022/10/23 11:26:04;;;;;;;10.95;4.30;;;;;;;;;;5096638;28;20202;-71
2022/10/23 11:28:51;;;;;;;13.00;4.55;;;;;;;;;;5090982;28;20235;-70
2022/10/23 11:31:38;;;;;;;9.65;4.18;;;;;;;;;;5090170;28;20527;-70
2022/10/23 11:34:34;;;;;;;6.18;3.97;;;;;;;;;;5089584;28;20217;-70
2022/10/23 11:37:02;;;;;;;8.82;4.22;;;;;;;;;;5084638;28;20204;-71
2022/10/23 11:39:33;;;;;;;9.70;4.30;;;;;;;;;;5090765;28;20184;-70
2022/10/23 11:42:04;;;;;;;7.45;3.78;;;;;;;;;;5090167;28;20207;-70
2022/10/23 11:44:35;;;;;;;6.53;3.70;;;;;;;;;;5094595;28;20172;-70
2022/10/23 11:47:04;;;;;;;8.88;3.85;;;;;;;;;;5093710;28;20233;-70
2022/10/23 11:49:30;;;;;;;12.82;3.80;;;;;;;;;;5105280;28;20856;-70
2022/10/23 11:52:04;;;;;;;11.75;4.57;;;;;;;;;;5106097;28;20187;-70
2022/10/23 11:54:30;;;;;;;9.48;3.70;;;;;;;;;;5090554;28;20187;-70
2022/10/23 11:57:13;;;;;;;10.65;3.92;;;;;;;;;;5093769;28;20171;-70
2022/10/23 11:59:48;;;;;;;6.35;3.70;;;;;;;;;;5094485;28;20176;-70
2022/10/23 12:02:35;;;;;;;8.82;3.25;;;;;;;;;;4385477;28;10000758;-72
2022/10/23 12:05:07;;;;;;;6.72;3.55;;;;;;;;;;5093992;28;20178;-70
2022/10/23 12:07:36;;;;;;;8.77;3.75;;;;;;;;;;5088098;28;20714;-70
2022/10/23 12:10:05;;;;;;;5.40;3.50;;;;;;;;;;5097960;28;20208;-71
2022/10/23 12:12:39;;;;;;;5.40;3.60;;;;;;;;;;5096362;28;20198;-70
2022/10/23 12:15:18;;;;;;;10.40;3.72;;;;;;;;;;5096802;28;20187;-70
2022/10/23 12:17:46;;;;;;;6.65;3.33;;;;;;;;;;5092558;28;20180;-70
2022/10/23 12:20:18;;;;;;;7.93;3.30;;;;;;;;;;5096326;28;20172;-73
2022/10/23 12:22:49;;;;;;;6.75;3.20;;;;;;;;;;5094445;28;20175;-70
2022/10/23 12:25:30;;;;;;;7.35;3.15;;;;;;;;;;5100369;28;20187;-70
2022/10/23 12:28:28;;;;;;;7.47;3.20;;;;;;;;;;5104418;28;20187;-70
2022/10/23 12:31:26;;;;;;;7.20;3.28;;;;;;;;;;5089413;28;20533;-70
2022/10/23 12:33:59;;;;;;;6.03;3.42;;;;;;;;;;5055129;28;20256;-70
2022/10/23 12:36:53;;;;;;;6.95;3.30;;;;;;;;;;5089082;28;20286;-71
2022/10/23 12:39:25;;;;;;;9.60;3.47;;;;;;;;;;5088013;28;20237;-70
2022/10/23 12:41:51;;;;;;;7.95;3.00;;;;;;;;;;5093182;28;20186;-70
2022/10/23 12:44:16;;;;;;;4.57;2.80;;;;;;;;;;5097810;28;20551;-70
2022/10/23 12:46:47;;;;;;;6.53;2.63;;;;;;;;;;5097529;28;20199;-70
2022/10/23 12:49:18;;;;;;;6.20;3.20;;;;;;;;;;5093831;28;20280;-70
2022/10/23 12:51:43;;;;;;;6.10;3.10;;;;;;;;;;5094015;28;20266;-70
2022/10/23 12:54:15;;;;;;;10.60;2.70;;;;;;;;;;5094507;28;20266;-70
2022/10/23 12:56:43;;;;;;;7.20;2.60;;;;;;;;;;5101121;28;20541;-70
2022/10/23 12:59:17;;;;;;;9.00;3.00;;;;;;;;;;5095637;28;20635;-70
2022/10/23 13:01:43;;;;;;;10.32;2.78;;;;;;;;;;5099466;28;20583;-70
2022/10/23 13:04:25;;;;;;;8.75;2.92;;;;;;;;;;5098510;28;20185;-70
2022/10/23 13:06:51;;;;;;;9.88;2.90;;;;;;;;;;5094883;28;20179;-70
2022/10/23 13:09:40;;;;;;;8.20;2.60;;;;;;;;;;5095397;28;20639;-70
2022/10/23 13:12:07;;;;;;;6.85;2.72;;;;;;;;;;5097795;28;20202;-70
2022/10/23 13:14:40;;;;;;;6.55;2.50;;;;;;;;;;5096929;28;20328;-70
2022/10/23 13:17:07;;;;;;;3.65;2.35;;;;;;;;;;5104856;28;20194;-70
2022/10/23 13:19:34;;;;;;;6.03;2.17;;;;;;;;;;5105704;28;20184;-70
2022/10/23 13:22:00;;;;;;;6.03;2.47;;;;;;;;;;5102133;28;20298;-69
2022/10/23 13:24:28;;;;;;;8.27;2.70;;;;;;;;;;5102343;28;20195;-69
2022/10/23 13:26:54;;;;;;;6.22;2.35;;;;;;;;;;5103998;28;20278;-70
2022/10/23 13:29:21;;;;;;;11.27;3.58;;;;;;;;;;5100337;28;20770;-69
2022/10/23 13:31:47;;;;;;;6.15;2.58;;;;;;;;;;5094057;28;20204;-69
2022/10/23 13:34:17;;;;;;;5.28;2.15;;;;;;;;;;5093278;27;20214;-70
2022/10/23 13:37:19;;;;;;;10.85;2.15;;;;;;;;;;5100101;28;20641;-70
2022/10/23 13:39:44;;;;;;;7.53;2.58;;;;;;;;;;5098225;28;20572;-70
2022/10/23 13:42:12;;;;;;;4.45;2.47;;;;;;;;;;5092661;28;20191;-70
2022/10/23 13:44:38;;;;;;;5.18;2.33;;;;;;;;;;5091396;28;20282;-69
2022/10/23 13:47:04;;;;;;;8.35;2.55;;;;;;;;;;5091966;28;20204;-69
2022/10/23 13:49:30;;;;;;;8.10;2.35;;;;;;;;;;5091695;28;20690;-69
2022/10/23 13:51:55;;;;;;;7.95;2.22;;;;;;;;;;5094998;27;20467;-71
2022/10/23 13:54:28;;;;;;;7.30;2.55;;;;;;;;;;5095971;28;20240;-68
2022/10/23 13:56:55;;;;;;;5.03;2.10;;;;;;;;;;5089444;28;20713;-68
2022/10/23 13:59:20;;;;;;;7.03;2.05;;;;;;;;;;5094104;28;20577;-71
2022/10/23 14:01:47;;;;;;;6.80;2.42;;;;;;;;;;5093909;28;20180;-68
2022/10/23 14:04:14;;;;;;;5.25;2.35;;;;;;;;;;5094658;28;20195;-68
2022/10/23 14:06:41;;;;;;;6.22;2.40;;;;;;;;;;5090165;28;20187;-68
2022/10/23 14:09:09;;;;;;;4.22;2.15;;;;;;;;;;5091647;28;20271;-69
2022/10/23 14:11:34;;;;;;;8.88;2.30;;;;;;;;;;5091229;28;20173;-69
2022/10/23 14:14:00;;;;;;;9.07;2.42;;;;;;;;;;5090887;28;20215;-68
2022/10/23 14:16:27;;;;;;;9.93;2.35;;;;;;;;;;5093824;28;20650;-69
2022/10/23 14:18:53;;;;;;;7.40;2.70;;;;;;;;;;5097927;28;20824;-69
2022/10/23 14:21:20;;;;;;;9.25;2.20;;;;;;;;;;5092695;28;20188;-68
2022/10/23 14:23:46;;;;;;;5.60;2.95;;;;;;;;;;5090672;28;20271;-68
2022/10/23 14:26:14;;;;;;;7.03;2.30;;;;;;;;;;5095763;28;20188;-71
2022/10/23 14:28:40;;;;;;;5.60;2.00;;;;;;;;;;5096903;28;20562;-68
2022/10/23 14:31:16;;;;;;;6.07;1.92;;;;;;;;;;5089926;28;20188;-69
2022/10/23 14:33:42;;;;;;;7.45;2.10;;;;;;;;;;5097764;28;20190;-71
2022/10/23 14:36:08;;;;;;;5.95;2.20;;;;;;;;;;5093883;28;20202;-69
2022/10/23 14:38:34;;;;;;;4.57;2.13;;;;;;;;;;5099578;28;20192;-69
2022/10/23 14:41:00;;;;;;;4.65;1.90;;;;;;;;;;5097051;28;20177;-69
2022/10/23 14:43:25;;;;;;;5.22;2.42;;;;;;;;;;5093192;28;20211;-69